TimeADT,TemperatureF,Dew PointF,Humidity,Sea Level PressureIn,VisibilityMPH,Wind Direction,Wind SpeedMPH,Gust SpeedMPH,PrecipitationIn,Events,Conditions,WindDirDegrees,DateUTC
12:00 AM,60.8,57.2,88,29.93,15.0,South,17.3,-,N/A,,Partly Cloudy,180,2013-09-22 03:00:00
1:00 AM,60.8,57.2,88,29.92,15.0,South,13.8,23.0,N/A,,Partly Cloudy,180,2013-09-22 04:00:00
2:00 AM,60.8,57.2,88,29.92,15.0,South,18.4,-,N/A,,Clear,190,2013-09-22 05:00:00
3:00 AM,60,57,88,29.92,15,SSW,10.4,,,,,200,2013-09-22 06:00:00
3:00 AM,60.8,57.2,88,29.92,15.0,SSW,12.7,-,N/A,,Clear,200,2013-09-22 06:00:00
4:00 AM,60.8,57.2,88,29.90,15.0,South,16.1,23.0,N/A,,Scattered Clouds,170,2013-09-22 07:00:00
5:00 AM,60.8,57.2,88,29.90,15.0,South,12.7,-,N/A,,Partly Cloudy,180,2013-09-22 08:00:00
5:40 AM,60.8,59.0,94,29.91,15.0,South,12.7,-,N/A,,Mostly Cloudy,180,2013-09-22 08:40:00
6:00 AM,60.8,59.0,94,29.90,15.0,South,12.7,-,N/A,,Overcast,190,2013-09-22 09:00:00
7:00 AM,62.6,60.8,94,29.90,15.0,South,16.1,-,N/A,,Mostly Cloudy,190,2013-09-22 10:00:00
7:38 AM,62.6,60.8,94,29.89,15.0,South,17.3,24.2,N/A,,Mostly Cloudy,180,2013-09-22 10:38:00
8:00 AM,64.4,60.8,88,29.88,15.0,South,19.6,-,N/A,,Mostly Cloudy,180,2013-09-22 11:00:00
9:00 AM,66,62,84,29.89,15,South,18.4,,,,Scattered Clouds,170,2013-09-22 12:00:00
9:00 AM,66.2,62.6,88,29.89,15.0,South,17.3,25.3,N/A,,Scattered Clouds,170,2013-09-22 12:00:00
10:00 AM,68.0,62.6,83,29.89,15.0,SSE,15.0,-,N/A,,Mostly Cloudy,160,2013-09-22 13:00:00
11:00 AM,71.6,64.4,78,29.87,15.0,South,19.6,26.5,N/A,,Scattered Clouds,170,2013-09-22 14:00:00
12:00 PM,73.4,64.4,73,29.85,15.0,South,19.6,27.6,N/A,,Mostly Cloudy,170,2013-09-22 15:00:00
1:00 PM,73.4,64.4,73,29.82,15.0,South,25.3,-,N/A,,Mostly Cloudy,180,2013-09-22 16:00:00
2:00 PM,75.2,64.4,69,29.79,15.0,South,24.2,33.4,N/A,,Mostly Cloudy,180,2013-09-22 17:00:00
3:00 PM,74,62,58,29.77,15,South,23.0,,,,Scattered Clouds,170,2013-09-22 18:00:00
3:00 PM,73.4,62.6,69,29.77,15.0,South,24.2,31.1,N/A,,Mostly Cloudy,170,2013-09-22 18:00:00
4:00 PM,73.4,60.8,65,29.75,15.0,South,25.3,33.4,N/A,,Mostly Cloudy,170,2013-09-22 19:00:00
5:00 PM,71.6,60.8,69,29.73,15.0,South,21.9,29.9,N/A,,Mostly Cloudy,180,2013-09-22 20:00:00
6:00 PM,69.8,60.8,73,29.73,15.0,South,19.6,26.5,N/A,,Mostly Cloudy,170,2013-09-22 21:00:00
7:00 PM,69.8,62.6,78,29.73,15.0,SSE,19.6,26.5,N/A,,Mostly Cloudy,160,2013-09-22 22:00:00
8:00 PM,69.8,62.6,78,29.72,15.0,South,19.6,27.6,N/A,,Overcast,170,2013-09-22 23:00:00
9:00 PM,69,63,76,29.70,15,SSE,20.7,,,,Overcast,160,2013-09-23 00:00:00
9:00 PM,69.8,62.6,78,29.70,15.0,SSE,19.6,27.6,N/A,,Overcast,160,2013-09-23 00:00:00
10:00 PM,68.0,62.6,83,29.69,15.0,SSE,18.4,-,N/A,,Overcast,160,2013-09-23 01:00:00
11:00 PM,68.0,64.4,88,29.67,15.0,SSE,17.3,-,N/A,,Overcast,160,2013-09-23 02:00:00